createdAt,value
2022-12-28T00:00:44.977Z,4.10
2022-12-28T00:03:32.335Z,4.10
2022-12-28T00:06:21.565Z,4.10
2022-12-28T00:09:12.923Z,4.20
2022-12-28T00:12:00.151Z,4.20
2022-12-28T00:14:47.572Z,4.30
2022-12-28T00:17:35.243Z,4.30
2022-12-28T00:20:22.649Z,4.30
2022-12-28T00:23:10.032Z,4.40
2022-12-28T00:26:06.809Z,4.40
2022-12-28T00:28:58.347Z,4.40
2022-12-28T00:31:49.022Z,4.40
2022-12-28T00:34:36.263Z,4.40
2022-12-28T00:37:23.674Z,4.40
2022-12-28T00:40:11.859Z,4.40
2022-12-28T00:43:00.307Z,4.40
2022-12-28T00:45:48.564Z,4.50
2022-12-28T00:48:35.759Z,4.50
2022-12-28T00:51:23.405Z,4.60
2022-12-28T00:54:10.881Z,4.50
2022-12-28T00:56:58.071Z,4.50
2022-12-28T00:59:46.968Z,4.60
2022-12-28T01:02:34.186Z,4.50
2022-12-28T01:05:21.710Z,4.50
2022-12-28T01:08:09.171Z,4.50
2022-12-28T01:10:56.757Z,4.50
2022-12-28T01:13:44.114Z,4.60
2022-12-28T01:16:35.193Z,4.50
2022-12-28T01:19:24.020Z,4.60
2022-12-28T01:22:11.605Z,4.50
2022-12-28T01:24:59.764Z,4.50
2022-12-28T01:27:46.980Z,4.60
2022-12-28T01:30:34.267Z,4.60
2022-12-28T01:33:28.192Z,4.50
2022-12-28T01:36:18.091Z,4.60
2022-12-28T01:39:06.935Z,4.60
2022-12-28T01:41:54.339Z,4.50
2022-12-28T01:44:47.464Z,4.50
2022-12-28T01:47:36.624Z,4.50
2022-12-28T01:50:29.061Z,4.50
2022-12-28T01:53:16.867Z,4.50
2022-12-28T01:56:04.117Z,4.50
2022-12-28T01:58:51.554Z,4.50
2022-12-28T02:01:39.540Z,4.40
2022-12-28T02:04:27.292Z,4.40
2022-12-28T02:07:22.980Z,4.40
2022-12-28T02:10:42.538Z,4.30
2022-12-28T02:13:20.829Z,4.30
2022-12-28T02:16:10.735Z,4.20
2022-12-28T02:18:58.073Z,4.20
2022-12-28T02:22:01.072Z,4.10
2022-12-28T02:25:12.860Z,4.10
2022-12-28T02:28:09.738Z,4.00
2022-12-28T02:31:07.154Z,4.00
2022-12-28T02:34:02.151Z,4.00
2022-12-28T02:36:55.196Z,3.90
2022-12-28T02:39:47.166Z,3.90
2022-12-28T02:42:37.617Z,3.90
2022-12-28T02:45:49.842Z,3.80
2022-12-28T02:49:00.409Z,3.80
2022-12-28T02:51:58.462Z,3.90
2022-12-28T02:55:27.373Z,3.80
2022-12-28T02:58:32.175Z,3.90
2022-12-28T03:01:31.334Z,3.80
2022-12-28T03:04:28.261Z,3.80
2022-12-28T03:07:43.261Z,3.80
2022-12-28T03:10:39.990Z,3.80
2022-12-28T03:13:44.860Z,3.80
2022-12-28T03:16:54.035Z,3.70
2022-12-28T03:20:07.841Z,3.70
2022-12-28T03:23:14.780Z,3.70
2022-12-28T03:26:21.710Z,3.70
2022-12-28T03:29:33.162Z,3.70
2022-12-28T03:32:21.088Z,3.70
2022-12-28T03:35:10.801Z,3.70
2022-12-28T03:38:02.648Z,3.70
2022-12-28T03:40:53.581Z,3.70
2022-12-28T03:43:46.573Z,3.70
2022-12-28T03:46:43.661Z,3.70
2022-12-28T03:49:31.389Z,3.70
2022-12-28T03:52:20.390Z,3.70
2022-12-28T03:55:08.459Z,3.70
2022-12-28T03:57:55.840Z,3.70
2022-12-28T04:00:47.251Z,3.70
2022-12-28T04:03:35.124Z,3.70
2022-12-28T04:06:22.952Z,3.60
2022-12-28T04:09:11.825Z,3.70
2022-12-28T04:12:01.612Z,3.70
2022-12-28T04:15:09.412Z,3.70
2022-12-28T04:17:56.889Z,3.70
2022-12-28T04:20:45.067Z,3.70
2022-12-28T04:23:33.294Z,3.70
2022-12-28T04:26:43.023Z,3.70
2022-12-28T04:29:31.380Z,3.70
2022-12-28T04:32:22.791Z,3.70
2022-12-28T04:35:10.382Z,3.70
2022-12-28T04:38:05.782Z,3.70
2022-12-28T04:40:53.172Z,3.80
2022-12-28T04:43:42.347Z,3.80
2022-12-28T04:46:29.929Z,3.80
2022-12-28T04:49:17.139Z,3.80
2022-12-28T04:52:04.707Z,3.80
2022-12-28T04:54:51.940Z,3.80
2022-12-28T04:57:39.434Z,3.80
2022-12-28T05:00:28.340Z,3.70
2022-12-28T05:03:15.701Z,3.70
2022-12-28T05:06:03.413Z,3.80
2022-12-28T05:08:50.917Z,3.80
2022-12-28T05:11:38.205Z,3.70
2022-12-28T05:14:25.751Z,3.80
2022-12-28T05:17:15.099Z,3.80
2022-12-28T05:20:02.767Z,3.80
2022-12-28T05:22:49.898Z,3.80
2022-12-28T05:25:37.412Z,3.80
2022-12-28T05:28:26.039Z,3.80
2022-12-28T05:31:15.348Z,3.80
2022-12-28T05:34:03.861Z,3.80
2022-12-28T05:36:51.134Z,3.80
2022-12-28T05:39:38.573Z,3.90
2022-12-28T05:42:25.921Z,3.90
2022-12-28T05:45:13.232Z,3.90
2022-12-28T05:48:00.718Z,3.90
2022-12-28T05:50:49.456Z,3.90
2022-12-28T05:53:37.458Z,3.90
2022-12-28T05:56:26.791Z,3.90
2022-12-28T05:59:14.298Z,4.00
2022-12-28T06:02:01.819Z,4.00
2022-12-28T06:04:49.048Z,4.10
2022-12-28T06:07:38.123Z,4.10
2022-12-28T06:10:25.513Z,4.10
2022-12-28T06:13:12.930Z,4.10
2022-12-28T06:16:00.284Z,4.10
2022-12-28T06:18:47.786Z,4.20
2022-12-28T06:21:37.021Z,4.20
2022-12-28T06:24:25.547Z,4.20
2022-12-28T06:27:12.776Z,4.20
2022-12-28T06:30:00.106Z,4.20
2022-12-28T06:32:47.529Z,4.30
2022-12-28T06:35:34.970Z,4.30
2022-12-28T06:38:22.348Z,4.30
2022-12-28T06:41:14.833Z,4.40
2022-12-28T06:44:03.232Z,4.50
2022-12-28T06:46:50.856Z,4.40
2022-12-28T06:49:38.271Z,4.40
2022-12-28T06:52:25.520Z,4.40
2022-12-28T06:55:12.918Z,4.40
2022-12-28T06:58:01.718Z,4.40
2022-12-28T07:00:48.827Z,4.40
2022-12-28T07:03:36.282Z,4.30
2022-12-28T07:06:26.121Z,4.30
2022-12-28T07:09:15.578Z,4.30
2022-12-28T07:12:03.095Z,4.30
2022-12-28T07:14:51.827Z,4.30
2022-12-28T07:17:38.956Z,4.30
2022-12-28T07:20:26.563Z,4.30
2022-12-28T07:23:13.990Z,4.30
2022-12-28T07:26:06.558Z,4.30
2022-12-28T07:28:55.623Z,4.30
2022-12-28T07:31:45.974Z,4.30
2022-12-28T07:34:33.503Z,4.30
2022-12-28T07:37:21.140Z,4.30
2022-12-28T07:40:09.881Z,4.40
2022-12-28T07:42:57.155Z,4.40
2022-12-28T07:45:44.516Z,4.40
2022-12-28T07:48:34.064Z,4.40
2022-12-28T07:51:24.078Z,4.40
2022-12-28T07:54:11.311Z,4.50
2022-12-28T07:56:58.580Z,4.50
2022-12-28T07:59:46.147Z,4.50
2022-12-28T08:02:33.622Z,4.50
2022-12-28T08:05:22.326Z,4.60
2022-12-28T08:08:09.403Z,4.60
2022-12-28T08:10:56.816Z,4.60
2022-12-28T08:13:47.714Z,4.70
2022-12-28T08:16:38.811Z,4.60
2022-12-28T08:19:26.295Z,4.70
2022-12-28T08:22:15.075Z,4.70
2022-12-28T08:25:02.279Z,4.80
2022-12-28T08:27:49.820Z,4.80
2022-12-28T08:30:37.297Z,4.80
2022-12-28T08:33:24.638Z,4.80
2022-12-28T08:36:12.625Z,4.90
2022-12-28T08:39:01.803Z,4.90
2022-12-28T08:41:49.111Z,5.00
2022-12-28T08:44:36.285Z,5.00
2022-12-28T08:47:23.637Z,5.10
2022-12-28T08:50:12.319Z,5.10
2022-12-28T08:52:59.814Z,5.20
2022-12-28T08:55:48.623Z,5.20
2022-12-28T08:58:36.119Z,5.30
2022-12-28T09:01:25.385Z,5.30
2022-12-28T09:04:15.297Z,5.40
2022-12-28T09:07:02.727Z,5.40
2022-12-28T09:09:50.204Z,5.40
2022-12-28T09:12:38.936Z,5.50
2022-12-28T09:15:26.024Z,5.50
2022-12-28T09:18:13.390Z,5.60
2022-12-28T09:21:05.967Z,5.70
2022-12-28T09:23:53.230Z,5.70
2022-12-28T09:26:40.949Z,5.70
2022-12-28T09:29:29.684Z,5.60
2022-12-28T09:32:16.816Z,5.70
2022-12-28T09:35:04.392Z,5.70
2022-12-28T09:37:51.708Z,5.70
2022-12-28T09:40:39.839Z,5.70
2022-12-28T09:43:28.521Z,5.60
2022-12-28T09:46:21.155Z,5.70
2022-12-28T09:49:16.220Z,5.70
2022-12-28T09:52:22.730Z,5.70
2022-12-28T09:55:15.545Z,5.70
2022-12-28T09:58:04.901Z,5.80
2022-12-28T10:00:55.119Z,5.80
2022-12-28T10:03:46.689Z,5.90
2022-12-28T10:06:36.660Z,5.90
2022-12-28T10:09:28.168Z,5.90
2022-12-28T10:12:17.199Z,5.90
2022-12-28T10:15:11.534Z,6.00
2022-12-28T10:17:58.886Z,6.00
2022-12-28T10:20:48.835Z,6.10
2022-12-28T10:23:50.135Z,6.10
2022-12-28T10:26:46.618Z,6.20
2022-12-28T10:29:35.080Z,6.20
2022-12-28T10:32:22.653Z,6.20
2022-12-28T10:35:23.612Z,6.30
2022-12-28T10:38:22.770Z,6.40
2022-12-28T10:41:12.719Z,6.40
2022-12-28T10:44:37.535Z,6.40
2022-12-28T10:47:18.986Z,6.40
2022-12-28T10:53:29.038Z,6.50
2022-12-28T10:56:23.103Z,6.50
2022-12-28T10:59:21.610Z,6.50
2022-12-28T11:02:28.517Z,6.50
2022-12-28T11:05:22.136Z,6.60
2022-12-28T11:08:13.921Z,6.60
2022-12-28T11:11:02.806Z,6.60
2022-12-28T11:13:55.249Z,6.70
2022-12-28T11:16:43.292Z,6.80
2022-12-28T11:19:31.455Z,6.90
2022-12-28T11:22:23.438Z,6.90
2022-12-28T11:25:13.986Z,7.00
2022-12-28T11:28:06.901Z,7.00
2022-12-28T11:30:54.360Z,7.10
2022-12-28T11:33:44.111Z,7.10
2022-12-28T11:36:33.088Z,7.10
2022-12-28T11:39:45.458Z,7.10
2022-12-28T11:42:56.002Z,7.30
2022-12-28T11:45:53.840Z,7.30
2022-12-28T11:48:49.100Z,7.30
2022-12-28T11:51:37.157Z,7.40
2022-12-28T11:54:38.810Z,7.40
2022-12-28T11:57:36.517Z,7.40
2022-12-28T12:00:43.261Z,7.30
2022-12-28T12:04:03.922Z,7.40
2022-12-28T12:07:31.765Z,7.40
2022-12-28T12:10:30.810Z,7.40
2022-12-28T12:13:45.322Z,7.40
2022-12-28T12:16:45.828Z,7.40
2022-12-28T12:19:36.751Z,7.40
2022-12-28T12:22:29.819Z,7.50
2022-12-28T12:25:23.018Z,7.50
2022-12-28T12:28:17.967Z,7.60
2022-12-28T12:31:09.504Z,7.70
2022-12-28T12:34:03.687Z,7.80
2022-12-28T12:37:21.246Z,7.90
2022-12-28T12:40:43.717Z,7.90
2022-12-28T12:43:36.950Z,8.00
2022-12-28T12:46:44.962Z,8.00
2022-12-28T12:49:44.758Z,8.10
2022-12-28T12:52:42.449Z,8.10
2022-12-28T12:55:46.846Z,8.10
2022-12-28T12:58:46.921Z,8.20
2022-12-28T13:01:43.546Z,8.20
2022-12-28T13:04:34.642Z,8.30
2022-12-28T13:07:23.782Z,8.40
2022-12-28T13:10:17.027Z,8.50
2022-12-28T13:13:06.540Z,8.50
2022-12-28T13:15:59.483Z,8.60
2022-12-28T13:18:57.959Z,8.60
2022-12-28T13:21:49.010Z,8.60
2022-12-28T13:24:38.783Z,8.50
2022-12-28T13:27:32.209Z,8.60
2022-12-28T13:30:22.132Z,8.60
2022-12-28T13:33:22.001Z,8.50
2022-12-28T13:36:15.446Z,8.50
2022-12-28T13:39:12.733Z,8.50
2022-12-28T13:42:01.172Z,8.30
2022-12-28T13:44:51.441Z,8.30
2022-12-28T13:47:43.538Z,8.20
2022-12-28T13:50:34.444Z,8.20
2022-12-28T13:53:25.457Z,8.20
2022-12-28T13:56:15.480Z,8.20
2022-12-28T13:59:07.244Z,8.20
2022-12-28T14:01:54.841Z,8.20
2022-12-28T14:04:52.686Z,8.20
2022-12-28T14:07:40.866Z,8.20
2022-12-28T14:10:29.321Z,8.20
2022-12-28T14:13:18.092Z,8.20
2022-12-28T14:16:06.703Z,8.20
2022-12-28T14:18:54.775Z,8.20
2022-12-28T14:21:46.072Z,8.10
2022-12-28T14:24:33.315Z,8.10
2022-12-28T14:27:20.952Z,8.10
2022-12-28T14:30:22.315Z,8.00
2022-12-28T14:33:24.397Z,8.00
2022-12-28T14:36:29.191Z,8.00
2022-12-28T14:39:34.520Z,7.90
2022-12-28T14:42:26.013Z,7.80
2022-12-28T14:45:24.377Z,7.80
2022-12-28T14:48:25.339Z,7.80
2022-12-28T14:51:28.505Z,7.80
2022-12-28T14:54:21.519Z,7.70
2022-12-28T14:57:22.883Z,7.70
2022-12-28T15:00:24.131Z,7.80
2022-12-28T15:03:17.932Z,7.80
2022-12-28T15:06:05.461Z,7.80
2022-12-28T15:08:54.258Z,7.90
2022-12-28T15:11:44.907Z,7.90
2022-12-28T15:14:32.216Z,7.90
2022-12-28T15:17:19.590Z,7.90
2022-12-28T15:20:08.327Z,7.90
2022-12-28T15:22:55.929Z,7.90
2022-12-28T15:25:43.498Z,7.80
2022-12-28T15:28:31.898Z,7.80
2022-12-28T15:31:21.143Z,7.80
2022-12-28T15:34:08.315Z,7.70
2022-12-28T15:36:55.596Z,7.70
2022-12-28T15:39:42.978Z,7.80
2022-12-28T15:42:33.695Z,7.80
2022-12-28T15:45:27.351Z,7.80
2022-12-28T15:48:14.777Z,7.80
2022-12-28T15:51:02.571Z,7.80
2022-12-28T15:53:49.785Z,7.90
2022-12-28T15:56:38.807Z,7.90
2022-12-28T15:59:26.623Z,7.90
2022-12-28T16:02:16.715Z,8.00
2022-12-28T16:05:04.210Z,8.00
2022-12-28T16:07:51.664Z,8.00
2022-12-28T16:10:38.776Z,8.00
2022-12-28T16:13:26.243Z,8.00
2022-12-28T16:16:14.813Z,8.10
2022-12-28T16:19:03.509Z,8.10
2022-12-28T16:21:51.629Z,8.10
2022-12-28T16:24:38.978Z,8.10
2022-12-28T16:27:26.445Z,8.10
2022-12-28T16:30:14.407Z,8.00
2022-12-28T16:33:01.688Z,8.00
2022-12-28T16:35:54.565Z,8.10
2022-12-28T16:38:46.564Z,8.10
2022-12-28T16:41:37.245Z,8.10
2022-12-28T16:44:27.255Z,8.20
2022-12-28T16:47:14.330Z,8.20
2022-12-28T16:50:01.800Z,8.20
2022-12-28T16:52:50.797Z,8.20
2022-12-28T16:55:41.867Z,8.20
2022-12-28T16:58:29.663Z,8.20
2022-12-28T17:01:18.186Z,8.20
2022-12-28T17:04:07.276Z,8.10
2022-12-28T17:06:54.944Z,8.20
2022-12-28T17:09:49.927Z,8.10
2022-12-28T17:12:37.559Z,8.10
2022-12-28T17:15:25.415Z,8.00
2022-12-28T17:18:12.784Z,7.90
2022-12-28T17:21:06.312Z,7.90
2022-12-28T17:23:54.084Z,7.90
2022-12-28T17:26:42.832Z,7.90
2022-12-28T17:29:30.221Z,7.90
2022-12-28T17:32:17.758Z,7.90
2022-12-28T17:35:05.436Z,7.90
2022-12-28T17:37:52.508Z,7.90
2022-12-28T17:40:42.196Z,7.90
2022-12-28T17:43:30.956Z,7.90
2022-12-28T17:46:18.217Z,7.80
2022-12-28T17:49:05.661Z,7.80
2022-12-28T17:51:54.090Z,7.90
2022-12-28T17:54:41.471Z,8.00
2022-12-28T17:57:30.795Z,8.00
2022-12-28T18:00:21.541Z,8.00
2022-12-28T18:03:08.974Z,8.00
2022-12-28T18:05:56.329Z,8.00
2022-12-28T18:08:43.834Z,8.00
2022-12-28T18:11:31.211Z,8.00
2022-12-28T18:14:18.471Z,8.00
2022-12-28T18:17:07.316Z,8.00
2022-12-28T18:19:55.816Z,8.00
2022-12-28T18:22:42.984Z,8.10
2022-12-28T18:25:32.038Z,8.10
2022-12-28T18:28:19.595Z,8.10
2022-12-28T18:31:07.208Z,8.10
2022-12-28T18:33:55.968Z,8.10
2022-12-28T18:36:43.474Z,8.10
2022-12-28T18:39:30.733Z,8.10
2022-12-28T18:42:19.403Z,8.10
2022-12-28T18:45:07.547Z,8.10
2022-12-28T18:47:55.162Z,8.10
2022-12-28T18:50:53.165Z,8.10
2022-12-28T18:53:41.457Z,8.10
2022-12-28T18:56:28.725Z,8.00
2022-12-28T18:59:16.134Z,8.00
2022-12-28T19:02:07.045Z,8.00
2022-12-28T19:04:55.396Z,8.00
2022-12-28T19:07:49.082Z,8.00
2022-12-28T19:10:36.831Z,8.00
2022-12-28T19:13:24.518Z,7.90
2022-12-28T19:16:15.315Z,7.90
2022-12-28T19:19:02.559Z,7.90
2022-12-28T19:21:56.647Z,7.80
2022-12-28T19:24:47.111Z,7.70
2022-12-28T19:27:34.362Z,7.70
2022-12-28T19:30:21.581Z,7.70
2022-12-28T19:33:08.912Z,7.70
2022-12-28T19:35:56.271Z,7.60
2022-12-28T19:38:43.791Z,7.60
2022-12-28T19:41:32.659Z,7.60
2022-12-28T19:44:20.985Z,7.60
2022-12-28T19:47:08.092Z,7.50
2022-12-28T19:49:55.651Z,7.60
2022-12-28T19:52:43.176Z,7.50
2022-12-28T19:55:30.668Z,7.50
2022-12-28T19:58:20.641Z,7.50
2022-12-28T20:01:09.445Z,7.50
2022-12-28T20:03:57.920Z,7.50
2022-12-28T20:06:45.690Z,7.50
2022-12-28T20:09:33.023Z,7.40
2022-12-28T20:12:22.458Z,7.30
2022-12-28T20:15:11.762Z,7.30
2022-12-28T20:17:59.110Z,7.30
2022-12-28T20:21:17.832Z,7.30
2022-12-28T20:23:54.692Z,7.30
2022-12-28T20:26:41.794Z,7.40
2022-12-28T20:29:29.396Z,7.30
2022-12-28T20:32:18.180Z,7.30
2022-12-28T20:35:05.914Z,7.30
2022-12-28T20:37:53.640Z,7.30
2022-12-28T20:40:41.264Z,7.30
2022-12-28T20:43:27.785Z,7.30
2022-12-28T20:46:15.173Z,7.30
2022-12-28T20:49:04.498Z,7.30
2022-12-28T20:51:52.211Z,7.30
2022-12-28T20:54:39.602Z,7.30
2022-12-28T20:57:26.971Z,7.30
2022-12-28T21:00:15.362Z,7.40
2022-12-28T21:03:02.640Z,7.40
2022-12-28T21:05:54.151Z,7.40
2022-12-28T21:08:41.379Z,7.30
2022-12-28T21:11:31.094Z,7.40
2022-12-28T21:14:18.591Z,7.40
2022-12-28T21:17:05.951Z,7.40
2022-12-28T21:19:53.281Z,7.40
2022-12-28T21:22:42.058Z,7.40
2022-12-28T21:25:29.403Z,7.40
2022-12-28T21:28:16.609Z,7.50
2022-12-28T21:31:04.950Z,7.50
2022-12-28T21:33:56.095Z,7.50
2022-12-28T21:36:43.253Z,7.60
2022-12-28T21:39:32.194Z,7.60
2022-12-28T21:42:19.452Z,7.60
2022-12-28T21:45:07.946Z,7.60
2022-12-28T21:47:55.092Z,7.70
2022-12-28T21:50:42.485Z,7.70
2022-12-28T21:53:29.834Z,7.70
2022-12-28T21:56:18.685Z,7.70
2022-12-28T21:59:06.448Z,7.70
2022-12-28T22:02:12.356Z,7.70
2022-12-28T22:05:14.024Z,7.70
2022-12-28T22:08:15.068Z,7.80
2022-12-28T22:11:19.871Z,7.80
2022-12-28T22:14:09.055Z,7.90
2022-12-28T22:16:56.575Z,7.90
2022-12-28T22:19:44.051Z,7.90
2022-12-28T22:22:31.457Z,7.90
2022-12-28T22:25:19.307Z,7.90
2022-12-28T22:28:07.084Z,8.00
2022-12-28T22:30:55.901Z,8.00
2022-12-28T22:33:42.997Z,8.00
2022-12-28T22:36:30.575Z,8.00
2022-12-28T22:39:18.061Z,8.10
2022-12-28T22:42:05.480Z,8.00
2022-12-28T22:44:52.736Z,8.10
2022-12-28T22:47:42.063Z,8.10
2022-12-28T22:50:29.942Z,8.10
2022-12-28T22:53:17.233Z,8.20
2022-12-28T22:56:07.140Z,8.10
2022-12-28T22:58:54.799Z,8.20
2022-12-28T23:01:43.440Z,8.20
2022-12-28T23:04:32.197Z,8.20
2022-12-28T23:07:19.339Z,8.20
2022-12-28T23:10:08.099Z,8.30
2022-12-28T23:12:55.603Z,8.20
2022-12-28T23:15:43.033Z,8.20
2022-12-28T23:18:48.663Z,8.20
2022-12-28T23:21:54.818Z,8.20
2022-12-28T23:24:59.260Z,8.10
2022-12-28T23:27:47.716Z,8.10
2022-12-28T23:30:35.395Z,8.10
2022-12-28T23:33:22.725Z,8.10
2022-12-28T23:36:10.027Z,8.10
2022-12-28T23:38:58.852Z,8.10
2022-12-28T23:41:51.742Z,8.10
2022-12-28T23:44:39.221Z,8.10
2022-12-28T23:47:26.817Z,8.00
2022-12-28T23:50:16.461Z,8.00
2022-12-28T23:53:04.092Z,8.00
2022-12-28T23:55:52.826Z,8.00
2022-12-28T23:58:39.924Z,8.00
